sensor_id;sensor_type;location;lat;lon;timestamp;P1;durP1;ratioP1;P2;durP2;ratioP2
51764;SDS011;37835;53.256;6.456;2024-01-11T00:02:22;59.87;;;30.40;;
51764;SDS011;37835;53.256;6.456;2024-01-11T00:04:48;59.40;;;30.07;;
51764;SDS011;37835;53.256;6.456;2024-01-11T00:07:14;58.43;;;30.00;;
51764;SDS011;37835;53.256;6.456;2024-01-11T00:09:40;56.73;;;30.20;;
51764;SDS011;37835;53.256;6.456;2024-01-11T00:12:07;54.33;;;30.57;;
51764;SDS011;37835;53.256;6.456;2024-01-11T00:14:34;57.40;;;29.50;;
51764;SDS011;37835;53.256;6.456;2024-01-11T00:17:00;59.97;;;30.77;;
51764;SDS011;37835;53.256;6.456;2024-01-11T00:19:26;55.57;;;29.37;;
51764;SDS011;37835;53.256;6.456;2024-01-11T00:21:51;59.13;;;30.70;;
51764;SDS011;37835;53.256;6.456;2024-01-11T00:24:17;60.30;;;31.33;;
51764;SDS011;37835;53.256;6.456;2024-01-11T00:26:43;60.20;;;31.00;;
51764;SDS011;37835;53.256;6.456;2024-01-11T00:29:08;61.77;;;32.30;;
51764;SDS011;37835;53.256;6.456;2024-01-11T00:31:34;60.50;;;31.30;;
51764;SDS011;37835;53.256;6.456;2024-01-11T00:34:00;61.33;;;30.43;;
51764;SDS011;37835;53.256;6.456;2024-01-11T00:36:26;63.33;;;31.43;;
51764;SDS011;37835;53.256;6.456;2024-01-11T00:38:53;61.60;;;31.97;;
51764;SDS011;37835;53.256;6.456;2024-01-11T00:41:19;65.70;;;32.27;;
51764;SDS011;37835;53.256;6.456;2024-01-11T00:43:45;62.07;;;31.17;;
51764;SDS011;37835;53.256;6.456;2024-01-11T00:46:10;66.07;;;33.40;;
51764;SDS011;37835;53.256;6.456;2024-01-11T00:48:36;62.37;;;32.07;;
51764;SDS011;37835;53.256;6.456;2024-01-11T00:51:03;64.57;;;33.00;;
51764;SDS011;37835;53.256;6.456;2024-01-11T00:53:30;64.07;;;32.50;;
51764;SDS011;37835;53.256;6.456;2024-01-11T00:55:59;65.87;;;32.30;;
51764;SDS011;37835;53.256;6.456;2024-01-11T00:58:25;63.97;;;32.20;;
51764;SDS011;37835;53.256;6.456;2024-01-11T01:00:51;62.73;;;33.13;;
51764;SDS011;37835;53.256;6.456;2024-01-11T01:03:20;65.63;;;32.73;;
51764;SDS011;37835;53.256;6.456;2024-01-11T01:05:46;66.83;;;32.57;;
51764;SDS011;37835;53.256;6.456;2024-01-11T01:08:12;63.33;;;31.87;;
51764;SDS011;37835;53.256;6.456;2024-01-11T01:10:38;70.33;;;34.23;;
51764;SDS011;37835;53.256;6.456;2024-01-11T01:13:04;68.93;;;34.20;;
51764;SDS011;37835;53.256;6.456;2024-01-11T01:15:30;69.03;;;33.53;;
51764;SDS011;37835;53.256;6.456;2024-01-11T01:17:55;71.40;;;35.43;;
51764;SDS011;37835;53.256;6.456;2024-01-11T01:20:21;66.90;;;33.30;;
51764;SDS011;37835;53.256;6.456;2024-01-11T01:22:47;67.27;;;32.07;;
51764;SDS011;37835;53.256;6.456;2024-01-11T01:25:14;65.97;;;33.73;;
51764;SDS011;37835;53.256;6.456;2024-01-11T01:27:40;70.20;;;34.00;;
51764;SDS011;37835;53.256;6.456;2024-01-11T01:30:05;64.47;;;31.77;;
51764;SDS011;37835;53.256;6.456;2024-01-11T01:32:31;68.37;;;33.40;;
51764;SDS011;37835;53.256;6.456;2024-01-11T01:34:57;64.63;;;32.83;;
51764;SDS011;37835;53.256;6.456;2024-01-11T01:37:23;69.17;;;34.30;;
51764;SDS011;37835;53.256;6.456;2024-01-11T01:39:49;67.53;;;32.83;;
51764;SDS011;37835;53.256;6.456;2024-01-11T01:42:14;65.33;;;32.10;;
51764;SDS011;37835;53.256;6.456;2024-01-11T01:44:40;68.30;;;33.33;;
51764;SDS011;37835;53.256;6.456;2024-01-11T01:47:06;64.53;;;32.70;;
51764;SDS011;37835;53.256;6.456;2024-01-11T01:49:33;61.93;;;31.37;;
51764;SDS011;37835;53.256;6.456;2024-01-11T01:52:00;64.83;;;32.87;;
51764;SDS011;37835;53.256;6.456;2024-01-11T01:54:28;64.67;;;31.93;;
51764;SDS011;37835;53.256;6.456;2024-01-11T01:56:54;67.27;;;33.53;;
51764;SDS011;37835;53.256;6.456;2024-01-11T01:59:21;69.00;;;33.87;;
51764;SDS011;37835;53.256;6.456;2024-01-11T02:01:47;68.93;;;32.70;;
51764;SDS011;37835;53.256;6.456;2024-01-11T02:04:14;64.83;;;33.70;;
51764;SDS011;37835;53.256;6.456;2024-01-11T02:06:40;67.60;;;33.50;;
51764;SDS011;37835;53.256;6.456;2024-01-11T02:09:06;68.97;;;33.63;;
51764;SDS011;37835;53.256;6.456;2024-01-11T02:11:33;63.60;;;32.70;;
51764;SDS011;37835;53.256;6.456;2024-01-11T02:13:59;65.93;;;32.77;;
51764;SDS011;37835;53.256;6.456;2024-01-11T02:16:25;65.47;;;31.83;;
51764;SDS011;37835;53.256;6.456;2024-01-11T02:18:51;65.63;;;32.63;;
51764;SDS011;37835;53.256;6.456;2024-01-11T02:21:16;65.00;;;32.43;;
51764;SDS011;37835;53.256;6.456;2024-01-11T02:23:43;67.60;;;34.17;;
51764;SDS011;37835;53.256;6.456;2024-01-11T02:26:12;67.67;;;33.63;;
51764;SDS011;37835;53.256;6.456;2024-01-11T02:28:38;66.43;;;32.73;;
51764;SDS011;37835;53.256;6.456;2024-01-11T02:31:08;64.20;;;31.77;;
51764;SDS011;37835;53.256;6.456;2024-01-11T02:33:35;64.67;;;33.20;;
51764;SDS011;37835;53.256;6.456;2024-01-11T02:36:01;66.43;;;32.97;;
51764;SDS011;37835;53.256;6.456;2024-01-11T02:38:27;68.13;;;32.97;;
51764;SDS011;37835;53.256;6.456;2024-01-11T02:40:53;64.53;;;33.20;;
51764;SDS011;37835;53.256;6.456;2024-01-11T02:43:20;67.10;;;32.60;;
51764;SDS011;37835;53.256;6.456;2024-01-11T02:45:45;64.77;;;32.47;;
51764;SDS011;37835;53.256;6.456;2024-01-11T02:48:11;64.97;;;32.13;;
51764;SDS011;37835;53.256;6.456;2024-01-11T02:50:36;66.67;;;33.17;;
51764;SDS011;37835;53.256;6.456;2024-01-11T02:53:02;63.93;;;31.10;;
51764;SDS011;37835;53.256;6.456;2024-01-11T02:55:28;62.77;;;31.13;;
51764;SDS011;37835;53.256;6.456;2024-01-11T02:57:54;62.07;;;31.50;;
51764;SDS011;37835;53.256;6.456;2024-01-11T03:00:19;64.63;;;32.13;;
51764;SDS011;37835;53.256;6.456;2024-01-11T03:02:45;66.77;;;31.50;;
51764;SDS011;37835;53.256;6.456;2024-01-11T03:05:11;62.33;;;30.90;;
51764;SDS011;37835;53.256;6.456;2024-01-11T03:07:36;63.30;;;29.87;;
51764;SDS011;37835;53.256;6.456;2024-01-11T03:10:02;62.40;;;30.87;;
51764;SDS011;37835;53.256;6.456;2024-01-11T03:12:28;67.07;;;32.87;;
51764;SDS011;37835;53.256;6.456;2024-01-11T03:14:54;66.23;;;33.03;;
51764;SDS011;37835;53.256;6.456;2024-01-11T03:17:19;62.27;;;30.50;;
51764;SDS011;37835;53.256;6.456;2024-01-11T03:19:45;62.47;;;29.90;;
51764;SDS011;37835;53.256;6.456;2024-01-11T03:22:11;64.07;;;30.87;;
51764;SDS011;37835;53.256;6.456;2024-01-11T03:24:37;64.83;;;30.87;;
51764;SDS011;37835;53.256;6.456;2024-01-11T03:27:06;64.50;;;32.03;;
51764;SDS011;37835;53.256;6.456;2024-01-11T03:29:32;65.87;;;31.67;;
51764;SDS011;37835;53.256;6.456;2024-01-11T03:31:57;60.87;;;31.07;;
51764;SDS011;37835;53.256;6.456;2024-01-11T03:34:23;64.07;;;32.67;;
51764;SDS011;37835;53.256;6.456;2024-01-11T03:36:48;66.13;;;32.27;;
51764;SDS011;37835;53.256;6.456;2024-01-11T03:39:14;64.27;;;32.83;;
51764;SDS011;37835;53.256;6.456;2024-01-11T03:41:46;64.83;;;32.40;;
51764;SDS011;37835;53.256;6.456;2024-01-11T03:46:38;68.33;;;31.43;;
51764;SDS011;37835;53.256;6.456;2024-01-11T03:49:03;67.37;;;31.60;;
51764;SDS011;37835;53.256;6.456;2024-01-11T03:51:29;65.33;;;31.73;;
51764;SDS011;37835;53.256;6.456;2024-01-11T03:53:55;62.67;;;31.50;;
51764;SDS011;37835;53.256;6.456;2024-01-11T03:56:20;69.73;;;32.97;;
51764;SDS011;37835;53.256;6.456;2024-01-11T03:58:46;67.50;;;32.73;;
51764;SDS011;37835;53.256;6.456;2024-01-11T04:01:12;71.93;;;32.97;;
51764;SDS011;37835;53.256;6.456;2024-01-11T04:03:37;66.80;;;31.90;;
51764;SDS011;37835;53.256;6.456;2024-01-11T04:06:03;70.87;;;33.97;;
51764;SDS011;37835;53.256;6.456;2024-01-11T04:08:29;70.20;;;34.00;;
51764;SDS011;37835;53.256;6.456;2024-01-11T04:10:55;68.17;;;33.93;;
51764;SDS011;37835;53.256;6.456;2024-01-11T04:13:21;74.80;;;33.50;;
51764;SDS011;37835;53.256;6.456;2024-01-11T04:15:47;69.63;;;35.03;;
51764;SDS011;37835;53.256;6.456;2024-01-11T04:18:13;69.50;;;32.63;;
51764;SDS011;37835;53.256;6.456;2024-01-11T04:20:39;74.20;;;34.57;;
51764;SDS011;37835;53.256;6.456;2024-01-11T04:23:04;72.07;;;32.90;;
51764;SDS011;37835;53.256;6.456;2024-01-11T04:25:30;72.87;;;34.67;;
51764;SDS011;37835;53.256;6.456;2024-01-11T04:27:56;67.00;;;32.73;;
51764;SDS011;37835;53.256;6.456;2024-01-11T04:30:21;69.03;;;33.47;;
51764;SDS011;37835;53.256;6.456;2024-01-11T04:32:47;71.10;;;32.67;;
51764;SDS011;37835;53.256;6.456;2024-01-11T04:35:13;73.20;;;33.60;;
51764;SDS011;37835;53.256;6.456;2024-01-11T04:37:38;76.33;;;35.27;;
51764;SDS011;37835;53.256;6.456;2024-01-11T04:40:04;79.70;;;35.30;;
51764;SDS011;37835;53.256;6.456;2024-01-11T04:42:32;78.43;;;36.33;;
51764;SDS011;37835;53.256;6.456;2024-01-11T04:44:58;80.03;;;35.50;;
51764;SDS011;37835;53.256;6.456;2024-01-11T04:47:23;76.23;;;35.63;;
51764;SDS011;37835;53.256;6.456;2024-01-11T04:49:49;78.40;;;36.37;;
51764;SDS011;37835;53.256;6.456;2024-01-11T04:52:14;78.77;;;36.67;;
51764;SDS011;37835;53.256;6.456;2024-01-11T04:54:40;83.10;;;36.97;;
51764;SDS011;37835;53.256;6.456;2024-01-11T04:57:06;88.03;;;39.07;;
51764;SDS011;37835;53.256;6.456;2024-01-11T04:59:32;83.33;;;37.50;;
51764;SDS011;37835;53.256;6.456;2024-01-11T05:01:58;80.43;;;38.60;;
51764;SDS011;37835;53.256;6.456;2024-01-11T05:04:23;84.80;;;38.47;;
51764;SDS011;37835;53.256;6.456;2024-01-11T05:06:50;83.17;;;37.80;;
51764;SDS011;37835;53.256;6.456;2024-01-11T05:09:16;79.47;;;37.03;;
51764;SDS011;37835;53.256;6.456;2024-01-11T05:11:42;81.87;;;37.17;;
51764;SDS011;37835;53.256;6.456;2024-01-11T05:14:07;85.10;;;38.33;;
51764;SDS011;37835;53.256;6.456;2024-01-11T05:16:33;89.90;;;39.87;;
51764;SDS011;37835;53.256;6.456;2024-01-11T05:19:00;83.33;;;38.53;;
51764;SDS011;37835;53.256;6.456;2024-01-11T05:21:26;87.67;;;39.73;;
51764;SDS011;37835;53.256;6.456;2024-01-11T05:23:52;84.10;;;38.70;;
51764;SDS011;37835;53.256;6.456;2024-01-11T05:26:18;81.73;;;38.70;;
51764;SDS011;37835;53.256;6.456;2024-01-11T05:28:44;80.70;;;36.90;;
51764;SDS011;37835;53.256;6.456;2024-01-11T05:31:10;86.03;;;39.90;;
51764;SDS011;37835;53.256;6.456;2024-01-11T05:33:37;81.47;;;38.97;;
51764;SDS011;37835;53.256;6.456;2024-01-11T05:36:03;79.17;;;38.67;;
51764;SDS011;37835;53.256;6.456;2024-01-11T05:38:30;83.83;;;39.37;;
51764;SDS011;37835;53.256;6.456;2024-01-11T05:40:55;81.83;;;39.13;;
51764;SDS011;37835;53.256;6.456;2024-01-11T05:43:24;85.63;;;39.67;;
51764;SDS011;37835;53.256;6.456;2024-01-11T05:45:50;86.93;;;39.23;;
51764;SDS011;37835;53.256;6.456;2024-01-11T05:48:16;80.47;;;37.80;;
51764;SDS011;37835;53.256;6.456;2024-01-11T05:50:43;91.43;;;40.87;;
51764;SDS011;37835;53.256;6.456;2024-01-11T05:53:09;83.33;;;38.47;;
51764;SDS011;37835;53.256;6.456;2024-01-11T05:55:35;77.87;;;37.47;;
51764;SDS011;37835;53.256;6.456;2024-01-11T05:58:00;85.20;;;40.13;;
51764;SDS011;37835;53.256;6.456;2024-01-11T06:00:26;87.57;;;40.20;;
51764;SDS011;37835;53.256;6.456;2024-01-11T06:02:52;81.83;;;38.97;;
51764;SDS011;37835;53.256;6.456;2024-01-11T06:05:18;85.00;;;40.43;;
51764;SDS011;37835;53.256;6.456;2024-01-11T06:07:44;86.83;;;40.13;;
51764;SDS011;37835;53.256;6.456;2024-01-11T06:10:09;88.00;;;40.70;;
51764;SDS011;37835;53.256;6.456;2024-01-11T06:12:35;80.37;;;38.60;;
51764;SDS011;37835;53.256;6.456;2024-01-11T06:15:01;86.53;;;39.33;;
51764;SDS011;37835;53.256;6.456;2024-01-11T06:17:27;85.07;;;39.43;;
51764;SDS011;37835;53.256;6.456;2024-01-11T06:19:54;81.17;;;38.27;;
51764;SDS011;37835;53.256;6.456;2024-01-11T06:22:19;86.17;;;39.90;;
51764;SDS011;37835;53.256;6.456;2024-01-11T06:24:46;82.73;;;38.77;;
51764;SDS011;37835;53.256;6.456;2024-01-11T06:27:11;81.90;;;39.37;;
51764;SDS011;37835;53.256;6.456;2024-01-11T06:29:37;85.47;;;38.77;;
51764;SDS011;37835;53.256;6.456;2024-01-11T06:32:03;83.03;;;40.37;;
51764;SDS011;37835;53.256;6.456;2024-01-11T06:34:29;84.90;;;39.87;;
51764;SDS011;37835;53.256;6.456;2024-01-11T06:36:55;83.13;;;39.00;;
51764;SDS011;37835;53.256;6.456;2024-01-11T06:39:21;82.33;;;39.23;;
51764;SDS011;37835;53.256;6.456;2024-01-11T06:41:46;82.50;;;38.70;;
51764;SDS011;37835;53.256;6.456;2024-01-11T06:44:12;81.93;;;37.87;;
51764;SDS011;37835;53.256;6.456;2024-01-11T06:46:38;79.87;;;37.47;;
51764;SDS011;37835;53.256;6.456;2024-01-11T06:49:09;85.27;;;38.30;;
51764;SDS011;37835;53.256;6.456;2024-01-11T06:51:35;81.00;;;37.10;;
51764;SDS011;37835;53.256;6.456;2024-01-11T06:54:01;87.90;;;40.47;;
51764;SDS011;37835;53.256;6.456;2024-01-11T06:56:26;82.17;;;38.63;;
51764;SDS011;37835;53.256;6.456;2024-01-11T06:58:53;87.13;;;40.30;;
51764;SDS011;37835;53.256;6.456;2024-01-11T07:01:19;80.00;;;38.73;;
51764;SDS011;37835;53.256;6.456;2024-01-11T07:03:45;86.37;;;39.53;;
51764;SDS011;37835;53.256;6.456;2024-01-11T07:06:11;75.73;;;38.47;;
51764;SDS011;37835;53.256;6.456;2024-01-11T07:08:37;80.33;;;38.43;;
51764;SDS011;37835;53.256;6.456;2024-01-11T07:11:03;81.27;;;38.43;;
51764;SDS011;37835;53.256;6.456;2024-01-11T07:13:29;82.80;;;38.53;;
51764;SDS011;37835;53.256;6.456;2024-01-11T07:15:57;84.13;;;40.03;;
51764;SDS011;37835;53.256;6.456;2024-01-11T07:18:24;79.97;;;38.30;;
51764;SDS011;37835;53.256;6.456;2024-01-11T07:20:53;78.90;;;37.33;;
51764;SDS011;37835;53.256;6.456;2024-01-11T07:23:21;79.37;;;38.47;;
51764;SDS011;37835;53.256;6.456;2024-01-11T07:25:47;81.03;;;37.80;;
51764;SDS011;37835;53.256;6.456;2024-01-11T07:28:12;78.60;;;37.77;;
51764;SDS011;37835;53.256;6.456;2024-01-11T07:30:38;79.87;;;38.90;;
51764;SDS011;37835;53.256;6.456;2024-01-11T07:33:04;79.00;;;37.87;;
51764;SDS011;37835;53.256;6.456;2024-01-11T07:35:30;76.73;;;38.77;;
51764;SDS011;37835;53.256;6.456;2024-01-11T07:37:56;78.50;;;38.47;;
51764;SDS011;37835;53.256;6.456;2024-01-11T07:40:22;80.17;;;37.63;;
51764;SDS011;37835;53.256;6.456;2024-01-11T07:42:48;83.07;;;37.97;;
51764;SDS011;37835;53.256;6.456;2024-01-11T07:45:14;78.90;;;37.40;;
51764;SDS011;37835;53.256;6.456;2024-01-11T07:47:40;73.30;;;37.20;;
51764;SDS011;37835;53.256;6.456;2024-01-11T07:50:08;77.07;;;36.43;;
51764;SDS011;37835;53.256;6.456;2024-01-11T07:52:40;73.13;;;35.80;;
51764;SDS011;37835;53.256;6.456;2024-01-11T07:55:10;76.40;;;37.37;;
51764;SDS011;37835;53.256;6.456;2024-01-11T07:57:37;74.27;;;36.50;;
51764;SDS011;37835;53.256;6.456;2024-01-11T08:00:04;76.00;;;37.20;;
51764;SDS011;37835;53.256;6.456;2024-01-11T08:02:32;72.40;;;36.17;;
51764;SDS011;37835;53.256;6.456;2024-01-11T08:04:58;73.33;;;35.47;;
51764;SDS011;37835;53.256;6.456;2024-01-11T08:07:25;73.00;;;35.80;;
51764;SDS011;37835;53.256;6.456;2024-01-11T08:09:51;69.23;;;34.80;;
51764;SDS011;37835;53.256;6.456;2024-01-11T08:12:17;69.97;;;35.60;;
51764;SDS011;37835;53.256;6.456;2024-01-11T08:14:43;71.80;;;35.23;;
51764;SDS011;37835;53.256;6.456;2024-01-11T08:17:11;71.90;;;36.17;;
51764;SDS011;37835;53.256;6.456;2024-01-11T08:19:38;74.00;;;36.17;;
51764;SDS011;37835;53.256;6.456;2024-01-11T08:22:05;72.57;;;36.93;;
51764;SDS011;37835;53.256;6.456;2024-01-11T08:24:31;70.87;;;35.77;;
51764;SDS011;37835;53.256;6.456;2024-01-11T08:26:56;69.80;;;35.67;;
51764;SDS011;37835;53.256;6.456;2024-01-11T08:29:22;73.90;;;38.03;;
51764;SDS011;37835;53.256;6.456;2024-01-11T08:31:48;73.73;;;37.77;;
51764;SDS011;37835;53.256;6.456;2024-01-11T08:34:14;75.47;;;37.60;;
51764;SDS011;37835;53.256;6.456;2024-01-11T08:36:39;78.47;;;37.73;;
51764;SDS011;37835;53.256;6.456;2024-01-11T08:39:05;69.33;;;35.33;;
51764;SDS011;37835;53.256;6.456;2024-01-11T08:41:32;72.90;;;36.90;;
51764;SDS011;37835;53.256;6.456;2024-01-11T08:43:58;67.97;;;34.60;;
51764;SDS011;37835;53.256;6.456;2024-01-11T08:46:24;71.83;;;35.97;;
51764;SDS011;37835;53.256;6.456;2024-01-11T08:48:53;72.50;;;35.57;;
51764;SDS011;37835;53.256;6.456;2024-01-11T08:51:21;67.63;;;34.70;;
51764;SDS011;37835;53.256;6.456;2024-01-11T08:53:46;76.53;;;36.77;;
51764;SDS011;37835;53.256;6.456;2024-01-11T08:56:13;76.27;;;37.57;;
51764;SDS011;37835;53.256;6.456;2024-01-11T08:58:41;69.47;;;35.27;;
51764;SDS011;37835;53.256;6.456;2024-01-11T09:01:06;78.10;;;35.73;;
51764;SDS011;37835;53.256;6.456;2024-01-11T09:03:34;68.50;;;34.67;;
51764;SDS011;37835;53.256;6.456;2024-01-11T09:06:00;70.83;;;36.50;;
51764;SDS011;37835;53.256;6.456;2024-01-11T09:08:27;70.93;;;35.80;;
51764;SDS011;37835;53.256;6.456;2024-01-11T09:10:53;70.73;;;36.50;;
51764;SDS011;37835;53.256;6.456;2024-01-11T09:13:18;74.67;;;37.03;;
51764;SDS011;37835;53.256;6.456;2024-01-11T09:15:44;74.63;;;38.27;;
51764;SDS011;37835;53.256;6.456;2024-01-11T09:18:10;69.60;;;35.63;;
51764;SDS011;37835;53.256;6.456;2024-01-11T09:20:36;70.40;;;35.93;;
51764;SDS011;37835;53.256;6.456;2024-01-11T09:23:02;67.27;;;34.63;;
51764;SDS011;37835;53.256;6.456;2024-01-11T09:25:31;72.50;;;36.87;;
51764;SDS011;37835;53.256;6.456;2024-01-11T09:27:57;63.10;;;34.67;;
51764;SDS011;37835;53.256;6.456;2024-01-11T09:30:23;67.90;;;34.57;;
51764;SDS011;37835;53.256;6.456;2024-01-11T09:32:49;66.40;;;35.03;;
51764;SDS011;37835;53.256;6.456;2024-01-11T09:35:14;63.17;;;33.20;;
51764;SDS011;37835;53.256;6.456;2024-01-11T09:37:40;68.53;;;34.97;;
51764;SDS011;37835;53.256;6.456;2024-01-11T09:40:07;63.93;;;35.30;;
51764;SDS011;37835;53.256;6.456;2024-01-11T09:42:38;66.93;;;34.50;;
51764;SDS011;37835;53.256;6.456;2024-01-11T09:45:07;62.63;;;32.87;;
51764;SDS011;37835;53.256;6.456;2024-01-11T09:47:35;64.47;;;33.47;;
51764;SDS011;37835;53.256;6.456;2024-01-11T09:50:02;64.40;;;34.33;;
51764;SDS011;37835;53.256;6.456;2024-01-11T09:52:29;64.07;;;34.67;;
51764;SDS011;37835;53.256;6.456;2024-01-11T09:54:57;59.37;;;33.57;;
51764;SDS011;37835;53.256;6.456;2024-01-11T09:57:29;63.20;;;33.83;;
51764;SDS011;37835;53.256;6.456;2024-01-11T09:59:57;64.80;;;33.90;;
51764;SDS011;37835;53.256;6.456;2024-01-11T10:02:24;64.30;;;33.23;;
51764;SDS011;37835;53.256;6.456;2024-01-11T10:04:53;64.57;;;33.23;;
51764;SDS011;37835;53.256;6.456;2024-01-11T10:07:19;65.50;;;33.93;;
51764;SDS011;37835;53.256;6.456;2024-01-11T10:09:47;63.50;;;33.10;;
51764;SDS011;37835;53.256;6.456;2024-01-11T10:12:13;60.53;;;33.07;;
51764;SDS011;37835;53.256;6.456;2024-01-11T10:14:39;62.07;;;32.03;;
51764;SDS011;37835;53.256;6.456;2024-01-11T10:17:05;59.10;;;31.40;;
51764;SDS011;37835;53.256;6.456;2024-01-11T10:19:31;59.37;;;33.37;;
51764;SDS011;37835;53.256;6.456;2024-01-11T10:21:57;59.40;;;32.17;;
51764;SDS011;37835;53.256;6.456;2024-01-11T10:24:26;67.77;;;32.03;;
51764;SDS011;37835;53.256;6.456;2024-01-11T10:26:58;61.33;;;32.90;;
51764;SDS011;37835;53.256;6.456;2024-01-11T10:29:32;61.20;;;32.70;;
51764;SDS011;37835;53.256;6.456;2024-01-11T10:31:59;56.87;;;32.37;;
51764;SDS011;37835;53.256;6.456;2024-01-11T10:34:24;56.87;;;31.70;;
51764;SDS011;37835;53.256;6.456;2024-01-11T10:36:50;58.03;;;31.13;;
51764;SDS011;37835;53.256;6.456;2024-01-11T10:39:16;59.97;;;32.23;;
51764;SDS011;37835;53.256;6.456;2024-01-11T10:41:47;59.70;;;32.37;;
51764;SDS011;37835;53.256;6.456;2024-01-11T10:44:19;60.83;;;31.33;;
51764;SDS011;37835;53.256;6.456;2024-01-11T10:46:49;54.97;;;30.30;;
51764;SDS011;37835;53.256;6.456;2024-01-11T10:49:16;56.37;;;31.03;;
51764;SDS011;37835;53.256;6.456;2024-01-11T10:51:49;60.43;;;30.77;;
51764;SDS011;37835;53.256;6.456;2024-01-11T10:54:23;56.23;;;30.63;;
51764;SDS011;37835;53.256;6.456;2024-01-11T10:56:49;59.93;;;31.00;;
51764;SDS011;37835;53.256;6.456;2024-01-11T10:59:16;57.23;;;30.60;;
51764;SDS011;37835;53.256;6.456;2024-01-11T11:01:44;55.07;;;29.37;;
51764;SDS011;37835;53.256;6.456;2024-01-11T11:04:13;52.60;;;30.23;;
51764;SDS011;37835;53.256;6.456;2024-01-11T11:06:40;53.83;;;30.27;;
51764;SDS011;37835;53.256;6.456;2024-01-11T11:09:08;54.23;;;28.63;;
51764;SDS011;37835;53.256;6.456;2024-01-11T11:11:36;54.13;;;29.57;;
51764;SDS011;37835;53.256;6.456;2024-01-11T11:14:03;54.17;;;29.83;;
51764;SDS011;37835;53.256;6.456;2024-01-11T11:16:30;55.40;;;31.43;;
51764;SDS011;37835;53.256;6.456;2024-01-11T11:18:55;55.40;;;29.57;;
51764;SDS011;37835;53.256;6.456;2024-01-11T11:21:21;53.73;;;29.33;;
51764;SDS011;37835;53.256;6.456;2024-01-11T11:23:49;55.47;;;28.70;;
51764;SDS011;37835;53.256;6.456;2024-01-11T11:26:16;49.63;;;28.93;;
51764;SDS011;37835;53.256;6.456;2024-01-11T11:28:42;50.10;;;27.90;;
51764;SDS011;37835;53.256;6.456;2024-01-11T11:31:08;49.60;;;28.50;;
51764;SDS011;37835;53.256;6.456;2024-01-11T11:33:40;51.10;;;28.03;;
51764;SDS011;37835;53.256;6.456;2024-01-11T11:36:05;51.97;;;27.53;;
51764;SDS011;37835;53.256;6.456;2024-01-11T11:38:37;53.00;;;29.10;;
51764;SDS011;37835;53.256;6.456;2024-01-11T11:41:04;52.10;;;27.37;;
51764;SDS011;37835;53.256;6.456;2024-01-11T11:43:29;48.87;;;26.97;;
51764;SDS011;37835;53.256;6.456;2024-01-11T11:45:57;52.50;;;28.33;;
51764;SDS011;37835;53.256;6.456;2024-01-11T11:51:05;49.15;;;26.60;;
51764;SDS011;37835;53.256;6.456;2024-01-11T11:53:35;50.80;;;27.60;;
51764;SDS011;37835;53.256;6.456;2024-01-11T11:56:02;46.77;;;26.33;;
51764;SDS011;37835;53.256;6.456;2024-01-11T11:58:31;46.77;;;26.37;;
51764;SDS011;37835;53.256;6.456;2024-01-11T12:00:58;48.10;;;26.60;;
51764;SDS011;37835;53.256;6.456;2024-01-11T12:03:29;45.90;;;25.87;;
51764;SDS011;37835;53.256;6.456;2024-01-11T12:06:05;48.00;;;25.23;;
51764;SDS011;37835;53.256;6.456;2024-01-11T12:08:33;43.87;;;24.53;;
51764;SDS011;37835;53.256;6.456;2024-01-11T12:10:59;48.57;;;25.93;;
51764;SDS011;37835;53.256;6.456;2024-01-11T12:13:25;45.27;;;24.00;;
51764;SDS011;37835;53.256;6.456;2024-01-11T12:15:51;47.57;;;27.10;;
51764;SDS011;37835;53.256;6.456;2024-01-11T12:18:17;48.67;;;26.75;;
51764;SDS011;37835;53.256;6.456;2024-01-11T12:20:42;51.13;;;27.33;;
51764;SDS011;37835;53.256;6.456;2024-01-11T12:23:08;47.43;;;25.83;;
51764;SDS011;37835;53.256;6.456;2024-01-11T12:25:34;48.37;;;26.27;;
51764;SDS011;37835;53.256;6.456;2024-01-11T12:28:01;54.13;;;28.73;;
51764;SDS011;37835;53.256;6.456;2024-01-11T12:30:27;62.30;;;34.17;;
51764;SDS011;37835;53.256;6.456;2024-01-11T12:32:54;56.80;;;31.37;;
51764;SDS011;37835;53.256;6.456;2024-01-11T12:35:21;58.33;;;31.10;;
51764;SDS011;37835;53.256;6.456;2024-01-11T12:40:29;66.07;;;37.43;;
51764;SDS011;37835;53.256;6.456;2024-01-11T12:43:00;64.60;;;38.67;;
51764;SDS011;37835;53.256;6.456;2024-01-11T12:45:26;53.30;;;29.92;;
51764;SDS011;37835;53.256;6.456;2024-01-11T12:47:52;45.27;;;26.40;;
51764;SDS011;37835;53.256;6.456;2024-01-11T12:50:19;52.20;;;28.43;;
51764;SDS011;37835;53.256;6.456;2024-01-11T12:52:45;49.30;;;29.17;;
51764;SDS011;37835;53.256;6.456;2024-01-11T12:55:18;52.43;;;31.37;;
51764;SDS011;37835;53.256;6.456;2024-01-11T12:57:44;55.80;;;33.43;;
51764;SDS011;37835;53.256;6.456;2024-01-11T13:00:13;52.53;;;29.73;;
51764;SDS011;37835;53.256;6.456;2024-01-11T13:02:41;47.87;;;27.40;;
51764;SDS011;37835;53.256;6.456;2024-01-11T13:05:11;47.25;;;27.83;;
51764;SDS011;37835;53.256;6.456;2024-01-11T13:07:37;47.20;;;27.75;;
51764;SDS011;37835;53.256;6.456;2024-01-11T13:10:03;49.33;;;28.83;;
51764;SDS011;37835;53.256;6.456;2024-01-11T13:12:30;45.57;;;25.83;;
51764;SDS011;37835;53.256;6.456;2024-01-11T13:14:56;50.17;;;27.13;;
51764;SDS011;37835;53.256;6.456;2024-01-11T13:17:22;43.90;;;25.50;;
51764;SDS011;37835;53.256;6.456;2024-01-11T13:19:47;49.88;;;26.40;;
51764;SDS011;37835;53.256;6.456;2024-01-11T13:22:13;49.93;;;26.00;;
51764;SDS011;37835;53.256;6.456;2024-01-11T13:24:39;52.50;;;28.33;;
51764;SDS011;37835;53.256;6.456;2024-01-11T13:27:04;47.20;;;26.93;;
51764;SDS011;37835;53.256;6.456;2024-01-11T13:29:31;46.92;;;27.08;;
51764;SDS011;37835;53.256;6.456;2024-01-11T13:31:56;50.95;;;27.55;;
51764;SDS011;37835;53.256;6.456;2024-01-11T13:34:22;48.17;;;26.50;;
51764;SDS011;37835;53.256;6.456;2024-01-11T13:36:48;43.80;;;25.65;;
51764;SDS011;37835;53.256;6.456;2024-01-11T13:39:14;45.13;;;27.30;;
51764;SDS011;37835;53.256;6.456;2024-01-11T13:41:39;49.47;;;28.73;;
51764;SDS011;37835;53.256;6.456;2024-01-11T13:44:06;50.90;;;27.80;;
51764;SDS011;37835;53.256;6.456;2024-01-11T13:46:32;55.72;;;31.30;;
51764;SDS011;37835;53.256;6.456;2024-01-11T13:48:58;53.80;;;31.27;;
51764;SDS011;37835;53.256;6.456;2024-01-11T13:51:23;51.38;;;27.95;;
51764;SDS011;37835;53.256;6.456;2024-01-11T13:53:49;60.95;;;30.60;;
51764;SDS011;37835;53.256;6.456;2024-01-11T13:56:15;52.50;;;26.90;;
51764;SDS011;37835;53.256;6.456;2024-01-11T13:58:41;55.88;;;28.83;;
51764;SDS011;37835;53.256;6.456;2024-01-11T14:01:06;50.97;;;25.90;;
51764;SDS011;37835;53.256;6.456;2024-01-11T14:03:33;51.65;;;26.17;;
51764;SDS011;37835;53.256;6.456;2024-01-11T14:05:59;46.85;;;25.35;;
51764;SDS011;37835;53.256;6.456;2024-01-11T14:08:25;50.77;;;26.13;;
51764;SDS011;37835;53.256;6.456;2024-01-11T14:10:51;47.87;;;25.10;;
51764;SDS011;37835;53.256;6.456;2024-01-11T14:13:18;50.83;;;25.65;;
51764;SDS011;37835;53.256;6.456;2024-01-11T14:15:43;47.28;;;25.35;;
51764;SDS011;37835;53.256;6.456;2024-01-11T14:18:09;46.80;;;26.33;;
51764;SDS011;37835;53.256;6.456;2024-01-11T14:20:35;55.37;;;25.77;;
51764;SDS011;37835;53.256;6.456;2024-01-11T14:23:01;44.60;;;24.67;;
51764;SDS011;37835;53.256;6.456;2024-01-11T14:25:27;43.67;;;23.47;;